createdAt,value
2018-10-02T00:00:27.353Z,19.05
2018-10-02T00:01:27.308Z,19.04
2018-10-02T00:02:27.283Z,19.04
2018-10-02T00:03:27.152Z,19.04
2018-10-02T00:04:27.390Z,19.04
2018-10-02T00:05:27.766Z,19.04
2018-10-02T00:06:27.390Z,19.03
2018-10-02T00:07:27.209Z,19.03
2018-10-02T00:08:27.124Z,19.03
2018-10-02T00:09:27.391Z,19.04
2018-10-02T00:10:27.163Z,19.03
2018-10-02T00:11:27.246Z,19.03
2018-10-02T00:12:27.339Z,19.02
2018-10-02T00:13:27.333Z,19.03
2018-10-02T00:14:27.448Z,19.02
2018-10-02T00:15:27.210Z,19.03
2018-10-02T00:16:27.239Z,19.03
2018-10-02T00:17:27.777Z,19.03
2018-10-02T00:18:27.288Z,19.02
2018-10-02T00:19:27.172Z,19.03
2018-10-02T00:20:27.267Z,19.02
2018-10-02T00:21:27.639Z,19.02
2018-10-02T00:22:27.343Z,19.02
2018-10-02T00:23:27.409Z,19.02
2018-10-02T00:24:27.364Z,19.03
2018-10-02T00:25:27.226Z,19.03
2018-10-02T00:26:27.274Z,19.02
2018-10-02T00:27:27.245Z,19.03
2018-10-02T00:28:27.352Z,19.03
2018-10-02T00:29:27.717Z,19.01
2018-10-02T00:30:27.364Z,19.02
2018-10-02T00:31:27.535Z,19.03
2018-10-02T00:32:27.728Z,19.04
2018-10-02T00:33:27.582Z,19.02
2018-10-02T00:34:27.300Z,19.01
2018-10-02T00:35:27.316Z,19.02
2018-10-02T00:36:27.645Z,19.02
2018-10-02T00:37:27.358Z,19.01
2018-10-02T00:38:27.564Z,19.01
2018-10-02T00:39:27.627Z,19.01
2018-10-02T00:40:27.204Z,19.02
2018-10-02T00:41:27.303Z,19.01
2018-10-02T00:42:27.258Z,19.01
2018-10-02T00:43:27.121Z,19.01
2018-10-02T00:44:27.223Z,19
2018-10-02T00:45:27.672Z,19.02
2018-10-02T00:46:27.563Z,19.01
2018-10-02T00:47:27.597Z,19.01
2018-10-02T00:48:27.484Z,19.02
2018-10-02T00:49:27.375Z,19.01
2018-10-02T00:50:27.356Z,19.01
2018-10-02T00:51:27.314Z,19.01
2018-10-02T00:52:27.362Z,19.01
2018-10-02T00:53:27.130Z,19.01
2018-10-02T00:54:27.297Z,19.01
2018-10-02T00:55:27.170Z,19.02
2018-10-02T00:56:27.311Z,19.01
2018-10-02T00:57:27.646Z,19
2018-10-02T00:58:27.228Z,19
2018-10-02T00:59:27.216Z,19.01
2018-10-02T01:00:27.646Z,19
2018-10-02T01:01:27.245Z,19
2018-10-02T01:02:27.299Z,19
2018-10-02T01:03:27.232Z,19
2018-10-02T01:04:27.328Z,18.99
2018-10-02T01:05:27.379Z,19
2018-10-02T01:06:27.676Z,18.98
2018-10-02T01:07:27.821Z,18.98
2018-10-02T01:08:27.175Z,18.99
2018-10-02T01:09:27.305Z,18.98
2018-10-02T01:10:27.243Z,18.98
2018-10-02T01:11:27.318Z,18.98
2018-10-02T01:12:27.563Z,18.99
2018-10-02T01:13:27.367Z,19
2018-10-02T01:14:27.696Z,18.99
2018-10-02T01:15:27.158Z,18.98
2018-10-02T01:16:27.309Z,18.99
2018-10-02T01:17:27.229Z,18.98
2018-10-02T01:18:27.429Z,18.97
2018-10-02T01:19:27.603Z,18.98
2018-10-02T01:20:27.292Z,18.98
2018-10-02T01:21:27.393Z,18.98
2018-10-02T01:22:27.226Z,18.98
2018-10-02T01:23:27.147Z,18.98
2018-10-02T01:24:27.211Z,18.97
2018-10-02T01:25:27.760Z,18.98
2018-10-02T01:26:27.413Z,18.96
2018-10-02T01:27:27.269Z,18.97
2018-10-02T01:28:27.260Z,18.96
2018-10-02T01:29:27.164Z,18.97
2018-10-02T01:30:27.147Z,18.95
2018-10-02T01:31:27.265Z,18.96
2018-10-02T01:32:27.619Z,18.97
2018-10-02T01:33:27.260Z,18.96
2018-10-02T01:34:27.415Z,18.96
2018-10-02T01:35:27.303Z,18.97
2018-10-02T01:36:27.360Z,18.97
2018-10-02T01:37:27.217Z,18.97
2018-10-02T01:38:27.336Z,18.97
2018-10-02T01:39:27.294Z,18.98
2018-10-02T01:40:27.208Z,18.96
2018-10-02T01:41:27.156Z,18.96
2018-10-02T01:42:27.406Z,18.96
2018-10-02T01:43:27.355Z,18.96
2018-10-02T01:44:27.664Z,18.97
2018-10-02T01:45:27.285Z,18.96
2018-10-02T01:46:27.376Z,18.96
2018-10-02T01:47:27.209Z,18.95
2018-10-02T01:48:27.198Z,18.94
2018-10-02T01:49:27.364Z,18.95
2018-10-02T01:50:27.289Z,18.94
2018-10-02T01:51:27.148Z,18.95
2018-10-02T01:52:27.179Z,18.94
2018-10-02T01:53:27.239Z,18.94
2018-10-02T01:54:27.757Z,18.94
2018-10-02T01:55:27.288Z,18.94
2018-10-02T01:56:27.171Z,18.95
2018-10-02T01:57:27.105Z,18.95
2018-10-02T01:58:27.223Z,18.96
2018-10-02T01:59:27.161Z,18.96
2018-10-02T02:00:27.318Z,18.95
2018-10-02T02:01:27.304Z,18.95
2018-10-02T02:02:27.252Z,18.96
2018-10-02T02:03:27.251Z,18.94
2018-10-02T02:04:27.298Z,18.94
2018-10-02T02:05:27.332Z,18.95
2018-10-02T02:06:27.648Z,18.95
2018-10-02T02:07:27.178Z,18.94
2018-10-02T02:08:27.245Z,18.95
2018-10-02T02:09:27.238Z,18.93
2018-10-02T02:10:27.287Z,18.93
2018-10-02T02:11:27.473Z,18.94
2018-10-02T02:12:27.311Z,18.94
2018-10-02T02:13:27.293Z,18.93
2018-10-02T02:14:27.717Z,18.94
2018-10-02T02:15:27.592Z,18.94
2018-10-02T02:16:27.355Z,18.94
2018-10-02T02:17:27.200Z,18.94
2018-10-02T02:18:27.334Z,18.95
2018-10-02T02:19:27.623Z,18.94
2018-10-02T02:20:27.304Z,18.94
2018-10-02T02:21:27.241Z,18.95
2018-10-02T02:22:27.346Z,18.94
2018-10-02T02:23:27.407Z,18.94
2018-10-02T02:24:27.191Z,18.93
2018-10-02T02:25:27.413Z,18.94
2018-10-02T02:26:27.129Z,18.94
2018-10-02T02:27:27.756Z,18.93
2018-10-02T02:28:27.250Z,18.92
2018-10-02T02:29:27.067Z,18.94
2018-10-02T02:30:27.703Z,18.93
2018-10-02T02:31:27.246Z,18.92
2018-10-02T02:32:27.267Z,18.92
2018-10-02T02:33:27.247Z,18.93
2018-10-02T02:34:27.186Z,18.93
2018-10-02T02:35:27.639Z,18.94
2018-10-02T02:36:27.286Z,18.93
2018-10-02T02:37:27.241Z,18.94
2018-10-02T02:38:27.416Z,18.94
2018-10-02T02:39:27.479Z,18.93
2018-10-02T02:40:27.239Z,18.92
2018-10-02T02:41:27.208Z,18.93
2018-10-02T02:42:27.083Z,18.93
2018-10-02T02:43:27.131Z,18.92
2018-10-02T02:44:27.011Z,18.93
2018-10-02T02:45:27.479Z,18.92
2018-10-02T02:46:27.031Z,18.91
2018-10-02T02:47:27.256Z,18.92
2018-10-02T02:48:27.133Z,18.91
2018-10-02T02:49:27.283Z,18.92
2018-10-02T02:50:27.447Z,18.91
2018-10-02T02:51:27.190Z,18.92
2018-10-02T02:52:27.243Z,18.91
2018-10-02T02:53:27.214Z,18.92
2018-10-02T02:54:27.376Z,18.92
2018-10-02T02:55:27.246Z,18.92
2018-10-02T02:56:27.056Z,18.9
2018-10-02T02:57:27.227Z,18.9
2018-10-02T02:58:27.245Z,18.91
2018-10-02T02:59:27.511Z,18.91
2018-10-02T03:00:27.370Z,18.91
2018-10-02T03:01:27.169Z,18.94
2018-10-02T03:02:27.157Z,18.91
2018-10-02T03:03:27.407Z,18.92
2018-10-02T03:04:27.163Z,18.92
2018-10-02T03:05:27.288Z,18.91
2018-10-02T03:06:27.267Z,18.9
2018-10-02T03:07:27.471Z,18.9
2018-10-02T03:08:27.090Z,18.9
2018-10-02T03:09:27.359Z,18.92
2018-10-02T03:10:27.207Z,18.9
2018-10-02T03:11:27.284Z,18.9
2018-10-02T03:12:27.211Z,18.89
2018-10-02T03:13:27.178Z,18.91
2018-10-02T03:14:27.349Z,18.9
2018-10-02T03:15:27.414Z,18.91
2018-10-02T03:16:27.233Z,18.9
2018-10-02T03:17:27.401Z,18.91
2018-10-02T03:18:27.206Z,18.91
2018-10-02T03:19:27.778Z,18.91
2018-10-02T03:20:27.343Z,18.91
2018-10-02T03:21:27.231Z,18.92
2018-10-02T03:22:27.262Z,18.9
2018-10-02T03:23:27.179Z,18.9
2018-10-02T03:24:27.335Z,18.9
2018-10-02T03:25:27.369Z,18.9
2018-10-02T03:26:27.295Z,18.9
2018-10-02T03:27:27.243Z,18.89
2018-10-02T03:28:27.395Z,18.88
2018-10-02T03:29:27.511Z,18.89
2018-10-02T03:30:27.251Z,18.89
2018-10-02T03:31:27.742Z,18.9
2018-10-02T03:32:27.193Z,18.89
2018-10-02T03:33:27.279Z,18.88
2018-10-02T03:34:27.280Z,18.89
2018-10-02T03:35:27.200Z,18.9
2018-10-02T03:36:27.226Z,18.89
2018-10-02T03:37:27.554Z,18.9
2018-10-02T03:38:27.227Z,18.88
2018-10-02T03:39:27.277Z,18.89
2018-10-02T03:40:27.329Z,18.89
2018-10-02T03:41:27.460Z,18.88
2018-10-02T03:42:27.188Z,18.89
2018-10-02T03:43:27.361Z,18.89
2018-10-02T03:44:27.194Z,18.88
2018-10-02T03:45:27.305Z,18.88
2018-10-02T03:46:27.554Z,18.88
2018-10-02T03:47:27.188Z,18.89
2018-10-02T03:48:27.209Z,18.89
2018-10-02T03:49:27.179Z,18.88
2018-10-02T03:50:27.084Z,18.9
2018-10-02T03:51:27.221Z,18.88
2018-10-02T03:52:27.277Z,18.89
2018-10-02T03:53:27.257Z,18.89
2018-10-02T03:54:27.195Z,18.88
2018-10-02T03:55:27.129Z,18.88
2018-10-02T03:56:27.405Z,18.88
2018-10-02T03:57:27.494Z,18.87
2018-10-02T03:58:27.631Z,18.89
2018-10-02T03:59:27.193Z,18.88
2018-10-02T04:00:27.077Z,18.87
2018-10-02T04:01:27.195Z,18.88
2018-10-02T04:02:27.204Z,18.9
2018-10-02T04:03:27.497Z,18.88
2018-10-02T04:04:27.383Z,18.88
2018-10-02T04:05:27.104Z,18.88
2018-10-02T04:06:27.221Z,18.88
2018-10-02T04:07:27.146Z,18.88
2018-10-02T04:08:27.642Z,18.87
2018-10-02T04:09:27.174Z,18.87
2018-10-02T04:10:27.319Z,18.86
2018-10-02T04:11:27.357Z,18.87
2018-10-02T04:12:27.271Z,18.86
2018-10-02T04:13:27.352Z,18.86
2018-10-02T04:14:27.357Z,18.86
2018-10-02T04:15:27.380Z,18.87
2018-10-02T04:16:27.271Z,18.87
2018-10-02T04:17:27.100Z,18.86
2018-10-02T04:18:27.139Z,18.85
2018-10-02T04:19:27.345Z,18.85
2018-10-02T04:20:27.320Z,18.86
2018-10-02T04:21:27.143Z,18.86
2018-10-02T04:22:27.061Z,18.87
2018-10-02T04:23:27.236Z,18.86
2018-10-02T04:24:27.328Z,18.86
2018-10-02T04:25:27.344Z,18.87
2018-10-02T04:26:27.074Z,18.86
2018-10-02T04:27:27.106Z,18.86
2018-10-02T04:28:27.242Z,18.85
2018-10-02T04:29:27.097Z,18.84
2018-10-02T04:30:27.270Z,18.85
2018-10-02T04:31:27.148Z,18.87
2018-10-02T04:32:27.277Z,18.86
2018-10-02T04:33:27.130Z,18.87
2018-10-02T04:34:27.072Z,18.88
2018-10-02T04:35:27.264Z,18.86
2018-10-02T04:36:27.358Z,18.86
2018-10-02T04:37:27.222Z,18.86
2018-10-02T04:38:27.178Z,18.86
2018-10-02T04:39:27.282Z,18.87
2018-10-02T04:40:27.054Z,18.86
2018-10-02T04:41:27.276Z,18.87
2018-10-02T04:42:27.218Z,18.87
2018-10-02T04:43:27.305Z,18.87
2018-10-02T04:44:27.201Z,18.87
2018-10-02T04:45:27.094Z,18.87
2018-10-02T04:46:27.527Z,18.87
2018-10-02T04:47:27.426Z,18.88
2018-10-02T04:48:27.627Z,18.86
2018-10-02T04:49:27.139Z,18.86
2018-10-02T04:50:27.386Z,18.86
2018-10-02T04:51:27.573Z,18.86
2018-10-02T04:52:27.111Z,18.86
2018-10-02T04:53:27.592Z,18.85
2018-10-02T04:54:27.105Z,18.86
2018-10-02T04:55:27.229Z,18.87
2018-10-02T04:56:27.262Z,18.86
2018-10-02T04:57:27.146Z,18.87
2018-10-02T04:58:27.071Z,18.87
2018-10-02T04:59:27.578Z,18.86
2018-10-02T05:00:27.073Z,18.85
2018-10-02T05:01:27.200Z,18.86
2018-10-02T05:02:27.309Z,18.88
2018-10-02T05:03:27.298Z,18.87
2018-10-02T05:04:27.212Z,18.87
2018-10-02T05:05:27.487Z,18.88
2018-10-02T05:06:27.492Z,18.87
2018-10-02T05:07:27.409Z,18.87
2018-10-02T05:08:27.227Z,18.88
2018-10-02T05:09:27.035Z,18.89
2018-10-02T05:10:27.427Z,18.88
2018-10-02T05:11:27.230Z,18.88
2018-10-02T05:12:27.069Z,18.88
2018-10-02T05:13:27.276Z,18.88
2018-10-02T05:14:27.087Z,18.88
2018-10-02T05:15:27.310Z,18.87
2018-10-02T05:16:27.214Z,18.88
2018-10-02T05:17:27.583Z,18.88
2018-10-02T05:18:27.223Z,18.87
2018-10-02T05:19:27.691Z,18.88
2018-10-02T05:20:27.253Z,18.88
2018-10-02T05:21:27.065Z,18.87
2018-10-02T05:22:27.596Z,18.87
2018-10-02T05:23:27.024Z,18.87
2018-10-02T05:24:27.116Z,18.87
2018-10-02T05:25:27.112Z,18.88
2018-10-02T05:26:27.114Z,18.87
2018-10-02T05:27:27.437Z,18.86
2018-10-02T05:28:27.150Z,18.87
2018-10-02T05:29:27.164Z,18.87
2018-10-02T05:30:27.119Z,18.87
2018-10-02T05:31:27.276Z,18.87
2018-10-02T05:32:27.359Z,18.88
2018-10-02T05:33:27.292Z,18.87
2018-10-02T05:34:27.396Z,18.87
2018-10-02T05:35:27.290Z,18.88
2018-10-02T05:36:27.167Z,18.87
2018-10-02T05:37:27.191Z,18.87
2018-10-02T05:38:26.998Z,18.86
2018-10-02T05:39:27.145Z,18.86
2018-10-02T05:40:27.171Z,18.87
2018-10-02T05:41:27.033Z,18.87
2018-10-02T05:42:27.649Z,18.88
2018-10-02T05:43:27.038Z,18.88
2018-10-02T05:44:27.304Z,18.87
2018-10-02T05:45:27.213Z,18.86
2018-10-02T05:46:27.125Z,18.88
2018-10-02T05:47:27.286Z,18.88
2018-10-02T05:48:27.151Z,18.87
2018-10-02T05:49:27.303Z,18.88
2018-10-02T05:50:27.048Z,18.88
2018-10-02T05:51:26.984Z,18.9
2018-10-02T05:52:27.037Z,18.88
2018-10-02T05:53:27.195Z,18.89
2018-10-02T05:54:27.266Z,18.89
2018-10-02T05:55:27.094Z,18.88
2018-10-02T05:56:27.282Z,18.87
2018-10-02T05:57:27.155Z,18.88
2018-10-02T05:58:27.306Z,18.88
2018-10-02T05:59:27.195Z,18.88
2018-10-02T06:00:26.991Z,18.87
2018-10-02T06:01:27.365Z,18.87
2018-10-02T06:02:27.475Z,18.88
2018-10-02T06:03:27.681Z,18.87
2018-10-02T06:04:27.196Z,18.87
2018-10-02T06:05:27.205Z,18.87
2018-10-02T06:06:27.412Z,18.87
2018-10-02T06:07:27.111Z,18.87
2018-10-02T06:08:27.420Z,18.87
2018-10-02T06:09:27.225Z,18.87
2018-10-02T06:10:27.324Z,18.88
2018-10-02T06:11:27.094Z,18.88
2018-10-02T06:12:26.918Z,18.87
2018-10-02T06:13:27.300Z,18.88
2018-10-02T06:14:26.995Z,18.86
2018-10-02T06:15:27.213Z,18.89
2018-10-02T06:16:27.259Z,18.89
2018-10-02T06:17:27.303Z,18.88
2018-10-02T06:18:27.330Z,18.88
2018-10-02T06:19:27.179Z,18.88
2018-10-02T06:20:27.132Z,18.87
2018-10-02T06:21:27.199Z,18.9
2018-10-02T06:22:27.241Z,18.92
2018-10-02T06:23:27.476Z,18.92
2018-10-02T06:24:27.241Z,18.95
2018-10-02T06:25:27.095Z,18.92
2018-10-02T06:26:27.947Z,18.94
2018-10-02T06:27:27.207Z,18.93
2018-10-02T06:28:27.373Z,18.94
2018-10-02T06:29:27.234Z,18.91
2018-10-02T06:30:27.389Z,18.92
2018-10-02T06:31:27.232Z,18.92
2018-10-02T06:32:27.165Z,18.91
2018-10-02T06:33:27.195Z,18.92
2018-10-02T06:34:27.297Z,18.91
2018-10-02T06:35:27.170Z,18.94
2018-10-02T06:36:27.223Z,18.95
2018-10-02T06:37:27.153Z,18.95
2018-10-02T06:38:27.486Z,18.96
2018-10-02T06:39:27.151Z,18.95
2018-10-02T06:40:27.392Z,18.95
2018-10-02T06:41:27.334Z,18.96
2018-10-02T06:42:27.100Z,18.95
2018-10-02T06:43:27.107Z,18.97
2018-10-02T06:44:27.218Z,18.98
2018-10-02T06:45:27.478Z,18.99
2018-10-02T06:46:27.244Z,19.02
2018-10-02T06:47:27.142Z,19
2018-10-02T06:48:27.326Z,19.01
2018-10-02T06:49:27.171Z,18.99
2018-10-02T06:50:26.979Z,19.02
2018-10-02T06:51:27.255Z,19.01
2018-10-02T06:52:27.648Z,19.03
2018-10-02T06:53:27.214Z,19.06
2018-10-02T06:54:27.215Z,19.05
2018-10-02T06:55:27.351Z,19.06
2018-10-02T06:56:27.210Z,19.05
2018-10-02T06:57:27.656Z,19.07
2018-10-02T06:58:27.160Z,19.07
2018-10-02T06:59:27.060Z,19.08
2018-10-02T07:00:27.134Z,19.08
2018-10-02T07:01:27.086Z,19.09
2018-10-02T07:02:27.165Z,19.09
2018-10-02T07:03:27.076Z,19.09
2018-10-02T07:04:27.220Z,19.1
2018-10-02T07:05:27.403Z,19.11
2018-10-02T07:06:27.270Z,19.12
2018-10-02T07:07:27.293Z,19.13
2018-10-02T07:08:27.160Z,19.13
2018-10-02T07:09:27.158Z,19.14
2018-10-02T07:10:27.461Z,19.13
2018-10-02T07:11:27.055Z,19.18
2018-10-02T07:12:27.179Z,19.12
2018-10-02T07:13:26.935Z,19.11
2018-10-02T07:14:27.140Z,19.12
2018-10-02T07:15:27.284Z,19.12
2018-10-02T07:16:27.059Z,19.1
2018-10-02T07:17:27.241Z,19.09
2018-10-02T07:18:26.966Z,19.08
2018-10-02T07:19:27.129Z,19.08
2018-10-02T07:20:27.252Z,19.07
2018-10-02T07:21:27.149Z,19.06
2018-10-02T07:22:27.091Z,19.07
2018-10-02T07:23:27.071Z,19.05
2018-10-02T07:24:27.041Z,19.05
2018-10-02T07:25:27.009Z,19.06
2018-10-02T07:26:27.643Z,19.04
2018-10-02T07:27:27.455Z,19.03
2018-10-02T07:28:27.401Z,19.04
2018-10-02T07:29:27.292Z,19.04
2018-10-02T07:30:27.204Z,19.03
2018-10-02T07:31:27.375Z,19.03
2018-10-02T07:32:27.347Z,19.01
2018-10-02T07:33:27.196Z,19.02
2018-10-02T07:34:27.100Z,19.02
2018-10-02T07:35:27.402Z,19.01
2018-10-02T07:36:27.235Z,19.03
2018-10-02T07:37:27.491Z,19.03
2018-10-02T07:38:27.475Z,19.02
2018-10-02T07:39:27.182Z,19.01
2018-10-02T07:40:27.461Z,19
2018-10-02T07:41:27.378Z,19
2018-10-02T07:42:27.164Z,19.01
2018-10-02T07:43:27.164Z,19
2018-10-02T07:44:27.110Z,19
2018-10-02T07:45:27.428Z,19
2018-10-02T07:46:27.294Z,19
2018-10-02T07:47:27.283Z,19
2018-10-02T07:48:27.187Z,18.99
2018-10-02T07:49:27.148Z,18.98
2018-10-02T07:50:27.298Z,18.98
2018-10-02T07:51:27.331Z,18.96
2018-10-02T07:52:27.043Z,18.96
2018-10-02T07:53:27.285Z,18.97
2018-10-02T07:54:27.099Z,18.97
2018-10-02T07:55:27.496Z,18.96
2018-10-02T07:56:27.394Z,18.98
2018-10-02T07:57:27.189Z,18.98
2018-10-02T07:58:27.359Z,18.98
2018-10-02T07:59:27.203Z,18.98
2018-10-02T08:00:27.134Z,18.98
2018-10-02T08:01:27.479Z,18.98
2018-10-02T08:02:27.305Z,18.97
2018-10-02T08:03:27.332Z,18.98
2018-10-02T08:04:27.167Z,18.98
2018-10-02T08:05:27.340Z,18.96
2018-10-02T08:06:26.961Z,18.95
2018-10-02T08:07:27.026Z,18.96
2018-10-02T08:08:27.527Z,18.96
2018-10-02T08:09:27.056Z,18.96
2018-10-02T08:10:27.277Z,18.96
2018-10-02T08:11:27.040Z,18.96
2018-10-02T08:12:27.446Z,18.96
2018-10-02T08:13:27.297Z,18.96
2018-10-02T08:14:26.954Z,18.96
2018-10-02T08:15:26.975Z,18.95
2018-10-02T08:16:27.091Z,18.94
2018-10-02T08:17:27.412Z,18.95
2018-10-02T08:18:27.108Z,18.96
2018-10-02T08:19:27.328Z,18.96
2018-10-02T08:20:27.246Z,18.96
2018-10-02T08:21:27.120Z,18.95
2018-10-02T08:22:27.128Z,18.95
2018-10-02T08:23:27.411Z,18.95
2018-10-02T08:24:27.114Z,18.94
2018-10-02T08:25:27.086Z,18.96
2018-10-02T08:26:26.957Z,18.96
2018-10-02T08:27:27.240Z,18.96
2018-10-02T08:28:27.146Z,18.94
2018-10-02T08:29:27.063Z,18.96
2018-10-02T08:30:27.247Z,18.96
2018-10-02T08:31:27.170Z,18.95
2018-10-02T08:32:27.102Z,18.95
2018-10-02T08:33:27.032Z,18.97
2018-10-02T08:34:27.120Z,18.96
2018-10-02T08:35:27.220Z,18.96
2018-10-02T08:36:27.145Z,18.98
2018-10-02T08:37:27.112Z,18.96
2018-10-02T08:38:27.149Z,18.97
2018-10-02T08:39:26.927Z,18.97
2018-10-02T08:40:27.123Z,18.97
2018-10-02T08:41:27.141Z,18.96
2018-10-02T08:42:27.132Z,18.96
2018-10-02T08:43:27.198Z,18.96
2018-10-02T08:44:27.203Z,18.96
2018-10-02T08:45:27.030Z,18.96
2018-10-02T08:46:27.088Z,18.97
2018-10-02T08:47:27.046Z,18.97
2018-10-02T08:48:26.983Z,18.95
2018-10-02T08:49:27.337Z,18.96
2018-10-02T08:50:27.171Z,18.96
2018-10-02T08:51:26.957Z,18.96
2018-10-02T08:52:27.098Z,18.97
2018-10-02T08:53:27.020Z,18.97
2018-10-02T08:54:26.941Z,18.96
2018-10-02T08:55:27.442Z,18.97
2018-10-02T08:56:27.062Z,18.98
2018-10-02T08:57:27.099Z,18.96
2018-10-02T08:58:27.067Z,18.96
2018-10-02T08:59:27.151Z,18.95
2018-10-02T09:00:27.336Z,18.95
2018-10-02T09:01:27.125Z,18.95
2018-10-02T09:02:27.025Z,18.96
2018-10-02T09:03:27.201Z,18.95
2018-10-02T09:04:27.072Z,18.96
2018-10-02T09:05:27.496Z,18.96
2018-10-02T09:06:26.995Z,18.95
2018-10-02T09:07:27.035Z,18.95
2018-10-02T09:08:27.137Z,18.95
2018-10-02T09:09:27.032Z,18.95
2018-10-02T09:10:27.648Z,18.94
2018-10-02T09:11:26.872Z,18.94
2018-10-02T09:12:27.112Z,18.94
2018-10-02T09:13:26.966Z,18.94
2018-10-02T09:14:27.150Z,18.95
2018-10-02T09:15:27.071Z,18.95
2018-10-02T09:16:27.152Z,18.94
2018-10-02T09:17:27.074Z,18.95
2018-10-02T09:18:27.130Z,18.94
2018-10-02T09:19:27.199Z,18.94
2018-10-02T09:20:26.908Z,18.95
2018-10-02T09:21:27.146Z,18.95
2018-10-02T09:22:27.595Z,18.95
2018-10-02T09:23:27.047Z,18.95
2018-10-02T09:24:27.046Z,18.93
2018-10-02T09:25:26.894Z,18.94
2018-10-02T09:26:27.143Z,18.95
2018-10-02T09:27:26.984Z,18.94
2018-10-02T09:28:27.172Z,18.95
2018-10-02T09:29:27.484Z,18.96
2018-10-02T09:30:27.565Z,18.95
2018-10-02T09:31:27.179Z,18.96
2018-10-02T09:32:27.084Z,18.94
2018-10-02T09:33:27.306Z,18.95
2018-10-02T09:34:27.205Z,18.95
2018-10-02T09:35:27.410Z,18.94
2018-10-02T09:36:27.400Z,18.94
2018-10-02T09:37:27.109Z,18.93
2018-10-02T09:38:27.165Z,18.95
2018-10-02T09:39:27.349Z,18.96
2018-10-02T09:40:27.542Z,18.93
2018-10-02T09:41:27.379Z,18.94
2018-10-02T09:42:27.024Z,18.94
2018-10-02T09:43:26.923Z,18.93
2018-10-02T09:44:27.049Z,18.94
2018-10-02T09:45:27.131Z,18.94
2018-10-02T09:46:27.058Z,18.95
2018-10-02T09:47:27.034Z,18.94
2018-10-02T09:48:27.457Z,18.93
2018-10-02T09:49:26.888Z,18.94
2018-10-02T09:50:27.097Z,18.94
2018-10-02T09:51:27.144Z,18.94
2018-10-02T09:52:27.063Z,18.94
2018-10-02T09:53:27.077Z,18.94
2018-10-02T09:54:27.054Z,18.93
2018-10-02T09:55:27.313Z,18.93
2018-10-02T09:56:27.415Z,18.93
2018-10-02T09:57:26.981Z,18.92
2018-10-02T09:58:27.121Z,18.93
2018-10-02T09:59:27.077Z,18.92
2018-10-02T10:00:27.069Z,18.92
2018-10-02T10:01:27.024Z,18.93
2018-10-02T10:02:27.024Z,18.92
2018-10-02T10:03:27.083Z,18.9
2018-10-02T10:04:26.928Z,18.91
2018-10-02T10:05:27.105Z,18.93
2018-10-02T10:06:27.005Z,18.92
2018-10-02T10:07:26.980Z,18.92
2018-10-02T10:08:26.857Z,18.91
2018-10-02T10:09:27.016Z,18.92
2018-10-02T10:10:27.166Z,18.92
2018-10-02T10:11:26.906Z,18.92
2018-10-02T10:12:26.923Z,18.92
2018-10-02T10:13:26.881Z,18.91
2018-10-02T10:14:27.023Z,18.93
2018-10-02T10:15:27.546Z,18.92
2018-10-02T10:16:27.101Z,18.91
2018-10-02T10:17:27.220Z,18.91
2018-10-02T10:18:27.015Z,18.92
2018-10-02T10:19:27.401Z,18.92
2018-10-02T10:20:27.294Z,18.94
2018-10-02T10:21:27.198Z,18.91
2018-10-02T10:22:27.028Z,18.91
2018-10-02T10:23:27.275Z,18.92
2018-10-02T10:24:27.103Z,18.92
2018-10-02T10:25:27.450Z,18.92
2018-10-02T10:26:27.012Z,18.91
2018-10-02T10:27:27.177Z,18.92
2018-10-02T10:28:27.177Z,18.92
2018-10-02T10:29:27.083Z,18.92
2018-10-02T10:30:26.919Z,18.92
2018-10-02T10:31:27.337Z,18.92
2018-10-02T10:32:27.156Z,18.9
2018-10-02T10:33:26.935Z,18.89
2018-10-02T10:34:27.098Z,18.91
2018-10-02T10:35:27.065Z,18.9
2018-10-02T10:36:26.963Z,18.9
2018-10-02T10:37:27.113Z,18.89
2018-10-02T10:38:26.868Z,18.89
2018-10-02T10:39:27.333Z,18.89
2018-10-02T10:40:26.949Z,18.9
2018-10-02T10:41:27.075Z,18.9
2018-10-02T10:42:27.336Z,18.9
2018-10-02T10:43:27.054Z,18.91
2018-10-02T10:44:27.479Z,18.91
2018-10-02T10:45:27.059Z,18.9
2018-10-02T10:46:26.998Z,18.91
2018-10-02T10:47:27.168Z,18.91
2018-10-02T10:48:27.226Z,18.9
2018-10-02T10:49:27.064Z,18.9
2018-10-02T10:50:26.828Z,18.9
2018-10-02T10:51:27.108Z,18.89
2018-10-02T10:52:27.054Z,18.9
2018-10-02T10:53:27.406Z,18.9
2018-10-02T10:54:27.210Z,18.9
2018-10-02T10:55:27.539Z,18.9
2018-10-02T10:56:27.152Z,18.9
2018-10-02T10:57:27.123Z,18.89
2018-10-02T10:58:27.065Z,18.89
2018-10-02T10:59:27.034Z,18.91
2018-10-02T11:00:27.304Z,18.89
2018-10-02T11:01:27.186Z,18.9
2018-10-02T11:02:27.243Z,18.89
2018-10-02T11:03:27.084Z,18.9
2018-10-02T11:04:27.034Z,18.89
2018-10-02T11:05:27.068Z,18.88
2018-10-02T11:06:26.994Z,18.88
2018-10-02T11:07:27.096Z,18.89
2018-10-02T11:08:27.317Z,18.9
2018-10-02T11:09:27.157Z,18.89
2018-10-02T11:10:27.255Z,18.89
2018-10-02T11:11:27.077Z,18.88
2018-10-02T11:12:27.445Z,18.89
2018-10-02T11:13:27.091Z,18.89
2018-10-02T11:14:26.871Z,18.89
2018-10-02T11:15:27.163Z,18.9
2018-10-02T11:16:27.057Z,18.89
2018-10-02T11:17:27.197Z,18.91
2018-10-02T11:18:27.279Z,18.9
2018-10-02T11:19:27.135Z,18.9
2018-10-02T11:20:27.108Z,18.9
2018-10-02T11:21:26.997Z,18.9
2018-10-02T11:22:26.991Z,18.92
2018-10-02T11:23:26.940Z,18.9
2018-10-02T11:24:27.059Z,18.89
2018-10-02T11:25:27.063Z,18.9
2018-10-02T11:26:27.075Z,18.89
2018-10-02T11:27:26.982Z,18.89
2018-10-02T11:28:26.896Z,18.88
2018-10-02T11:29:27.212Z,18.89
2018-10-02T11:30:26.942Z,18.89
2018-10-02T11:31:27.158Z,18.89
2018-10-02T11:32:26.901Z,18.89
2018-10-02T11:33:26.984Z,18.9
2018-10-02T11:34:27.288Z,18.89
2018-10-02T11:35:27.057Z,18.9
2018-10-02T11:36:27.025Z,18.88
2018-10-02T11:37:27.045Z,18.9
2018-10-02T11:38:26.983Z,18.89
2018-10-02T11:39:26.977Z,18.89
2018-10-02T11:40:26.964Z,18.88
2018-10-02T11:41:27.095Z,18.87
2018-10-02T11:42:27.024Z,18.88
2018-10-02T11:43:27.053Z,18.89
2018-10-02T11:44:27.715Z,18.88
2018-10-02T11:45:26.815Z,18.88
2018-10-02T11:46:26.950Z,18.89
2018-10-02T11:47:27.056Z,18.89
2018-10-02T11:48:27.046Z,18.88
2018-10-02T11:49:27.219Z,18.88
2018-10-02T11:50:26.947Z,18.87
2018-10-02T11:51:27.096Z,18.88
2018-10-02T11:52:27.058Z,18.89
2018-10-02T11:53:26.942Z,18.88
2018-10-02T11:54:27.124Z,18.89
2018-10-02T11:55:27.159Z,18.9
2018-10-02T11:56:27.111Z,18.9
2018-10-02T11:57:27.073Z,18.88
2018-10-02T11:58:26.998Z,18.89
2018-10-02T11:59:26.881Z,18.89
2018-10-02T12:00:27.144Z,18.88
2018-10-02T12:01:27.444Z,18.88
2018-10-02T12:02:27.054Z,18.87
2018-10-02T12:03:27.289Z,18.89
2018-10-02T12:04:27.343Z,18.88
2018-10-02T12:05:27.088Z,18.9
2018-10-02T12:06:27.018Z,18.88
2018-10-02T12:07:27.323Z,18.89
2018-10-02T12:08:27.014Z,18.89
2018-10-02T12:09:27.176Z,18.89
2018-10-02T12:10:27.328Z,18.89
2018-10-02T12:11:27.579Z,18.9
2018-10-02T12:12:27.349Z,18.89
2018-10-02T12:13:27.212Z,18.89
2018-10-02T12:14:27.416Z,18.89
2018-10-02T12:15:27.195Z,18.88
2018-10-02T12:16:27.096Z,18.88
2018-10-02T12:17:27.216Z,18.88
2018-10-02T12:18:27.031Z,18.89
2018-10-02T12:19:27.142Z,18.89
2018-10-02T12:20:27.017Z,18.9
2018-10-02T12:21:26.920Z,18.87
2018-10-02T12:22:27.131Z,18.87
2018-10-02T12:23:26.935Z,18.87
2018-10-02T12:24:27.344Z,18.87
2018-10-02T12:25:26.813Z,18.87
2018-10-02T12:26:27.356Z,18.88
2018-10-02T12:27:26.943Z,18.88
2018-10-02T12:28:27.583Z,18.87
2018-10-02T12:29:26.827Z,18.87
2018-10-02T12:30:27.127Z,18.88
2018-10-02T12:31:27.083Z,18.88
2018-10-02T12:32:26.839Z,18.88
2018-10-02T12:33:27.205Z,18.87
2018-10-02T12:34:27.082Z,18.88
2018-10-02T12:35:27.140Z,18.88
2018-10-02T12:36:27.104Z,18.87
2018-10-02T12:37:26.945Z,18.87
2018-10-02T12:38:27.271Z,18.87
2018-10-02T12:39:27.090Z,18.87
2018-10-02T12:40:27.026Z,18.87
2018-10-02T12:41:27.366Z,18.86
2018-10-02T12:42:27.008Z,18.87
2018-10-02T12:43:27.072Z,18.86
2018-10-02T12:44:27.387Z,18.87
2018-10-02T12:45:27.340Z,18.88
2018-10-02T12:46:27.310Z,18.88
2018-10-02T12:47:27.006Z,18.86
2018-10-02T12:48:26.888Z,18.87
2018-10-02T12:49:26.984Z,18.87
2018-10-02T12:50:26.896Z,18.86
2018-10-02T12:51:26.933Z,18.86
2018-10-02T12:52:27.091Z,18.87
2018-10-02T12:53:26.976Z,18.86
2018-10-02T12:54:27.011Z,18.86
2018-10-02T12:55:26.952Z,18.86
2018-10-02T12:56:27.109Z,18.89